sensor_id;sensor_type;location;lat;lon;timestamp;pressure;altitude;pressure_sealevel;temperature;humidity
61757;BME280;57225;61.460;24.060;2022-12-29T00:00:52;99466.19;;;-3.31;100.00
61757;BME280;57225;61.460;24.060;2022-12-29T00:03:36;99462.66;;;-3.31;100.00
61757;BME280;57225;61.460;24.060;2022-12-29T00:06:21;99463.16;;;-3.38;100.00
61757;BME280;57225;61.460;24.060;2022-12-29T00:09:05;99472.75;;;-3.32;100.00
61757;BME280;57225;61.460;24.060;2022-12-29T00:11:50;99476.56;;;-3.24;100.00
61757;BME280;57225;61.460;24.060;2022-12-29T00:14:34;99478.00;;;-3.27;100.00
61757;BME280;57225;61.460;24.060;2022-12-29T00:17:37;99477.59;;;-3.46;100.00
61757;BME280;57225;61.460;24.060;2022-12-29T00:20:21;99481.13;;;-3.45;100.00
61757;BME280;57225;61.460;24.060;2022-12-29T00:23:24;99488.38;;;-3.49;100.00
61757;BME280;57225;61.460;24.060;2022-12-29T00:26:28;99496.72;;;-3.54;100.00
61757;BME280;57225;61.460;24.060;2022-12-29T00:29:31;99496.06;;;-3.51;100.00
61757;BME280;57225;61.460;24.060;2022-12-29T00:32:34;99485.97;;;-3.51;100.00
61757;BME280;57225;61.460;24.060;2022-12-29T00:35:42;99481.94;;;-3.53;100.00
61757;BME280;57225;61.460;24.060;2022-12-29T00:38:29;99496.88;;;-3.59;100.00
61757;BME280;57225;61.460;24.060;2022-12-29T00:41:34;99480.22;;;-3.58;100.00
61757;BME280;57225;61.460;24.060;2022-12-29T00:44:45;99483.75;;;-3.66;100.00
61757;BME280;57225;61.460;24.060;2022-12-29T00:47:29;99489.50;;;-3.59;100.00
61757;BME280;57225;61.460;24.060;2022-12-29T00:50:14;99478.59;;;-3.59;100.00
61757;BME280;57225;61.460;24.060;2022-12-29T00:52:58;99481.00;;;-3.57;100.00
61757;BME280;57225;61.460;24.060;2022-12-29T00:55:44;99484.22;;;-3.55;100.00
61757;BME280;57225;61.460;24.060;2022-12-29T00:58:29;99479.28;;;-3.62;100.00
61757;BME280;57225;61.460;24.060;2022-12-29T01:01:14;99478.78;;;-3.55;100.00
61757;BME280;57225;61.460;24.060;2022-12-29T01:03:58;99477.81;;;-3.59;100.00
61757;BME280;57225;61.460;24.060;2022-12-29T01:06:42;99457.31;;;-3.66;100.00
61757;BME280;57225;61.460;24.060;2022-12-29T01:09:27;99457.19;;;-3.78;100.00
61757;BME280;57225;61.460;24.060;2022-12-29T01:12:29;99456.25;;;-3.82;100.00
61757;BME280;57225;61.460;24.060;2022-12-29T01:15:28;99457.38;;;-3.83;100.00
61757;BME280;57225;61.460;24.060;2022-12-29T01:18:12;99451.00;;;-3.87;100.00
61757;BME280;57225;61.460;24.060;2022-12-29T01:21:01;99466.84;;;-3.80;100.00
61757;BME280;57225;61.460;24.060;2022-12-29T01:23:46;99475.31;;;-3.82;100.00
61757;BME280;57225;61.460;24.060;2022-12-29T01:26:30;99474.50;;;-3.74;100.00
61757;BME280;57225;61.460;24.060;2022-12-29T01:29:15;99457.06;;;-3.81;100.00
61757;BME280;57225;61.460;24.060;2022-12-29T01:32:00;99457.06;;;-3.81;100.00
61757;BME280;57225;61.460;24.060;2022-12-29T01:34:44;99457.69;;;-3.84;100.00
61757;BME280;57225;61.460;24.060;2022-12-29T01:37:29;99457.50;;;-3.79;100.00
61757;BME280;57225;61.460;24.060;2022-12-29T01:40:13;99462.31;;;-3.76;100.00
61757;BME280;57225;61.460;24.060;2022-12-29T01:42:57;99458.81;;;-3.77;100.00
61757;BME280;57225;61.460;24.060;2022-12-29T01:45:53;99461.22;;;-3.84;100.00
61757;BME280;57225;61.460;24.060;2022-12-29T01:48:38;99473.88;;;-3.88;100.00
61757;BME280;57225;61.460;24.060;2022-12-29T01:51:24;99466.97;;;-3.77;100.00
61757;BME280;57225;61.460;24.060;2022-12-29T01:57:29;99451.94;;;-3.83;100.00
61757;BME280;57225;61.460;24.060;2022-12-29T02:00:14;99449.22;;;-3.83;100.00
61757;BME280;57225;61.460;24.060;2022-12-29T02:02:58;99454.16;;;-3.85;100.00
61757;BME280;57225;61.460;24.060;2022-12-29T02:05:53;99461.22;;;-3.84;100.00
61757;BME280;57225;61.460;24.060;2022-12-29T02:08:40;99461.88;;;-3.87;100.00
61757;BME280;57225;61.460;24.060;2022-12-29T02:11:26;99468.75;;;-3.81;100.00
61757;BME280;57225;61.460;24.060;2022-12-29T02:14:13;99462.00;;;-3.75;100.00
61757;BME280;57225;61.460;24.060;2022-12-29T02:20:24;99463.94;;;-3.75;100.00
61757;BME280;57225;61.460;24.060;2022-12-29T02:32:12;99458.47;;;-3.75;100.00
61757;BME280;57225;61.460;24.060;2022-12-29T02:41:38;99472.09;;;-3.84;100.00
61757;BME280;57225;61.460;24.060;2022-12-29T02:44:52;99474.00;;;-3.76;100.00
61757;BME280;57225;61.460;24.060;2022-12-29T02:47:54;99460.88;;;-3.74;100.00
61757;BME280;57225;61.460;24.060;2022-12-29T02:51:09;99466.97;;;-3.77;100.00
61757;BME280;57225;61.460;24.060;2022-12-29T02:53:56;99459.09;;;-3.70;100.00
61757;BME280;57225;61.460;24.060;2022-12-29T03:00:12;99445.19;;;-3.68;100.00
61757;BME280;57225;61.460;24.060;2022-12-29T03:03:32;99451.06;;;-3.66;100.00
61757;BME280;57225;61.460;24.060;2022-12-29T03:12:43;99428.34;;;-3.70;100.00
61757;BME280;57225;61.460;24.060;2022-12-29T03:19:02;99445.31;;;-3.65;100.00
61757;BME280;57225;61.460;24.060;2022-12-29T03:22:00;99448.34;;;-3.66;100.00
61757;BME280;57225;61.460;24.060;2022-12-29T03:28:03;99445.78;;;-3.62;100.00
61757;BME280;57225;61.460;24.060;2022-12-29T03:30:50;99439.69;;;-3.59;100.00
61757;BME280;57225;61.460;24.060;2022-12-29T03:33:35;99440.47;;;-3.59;100.00
61757;BME280;57225;61.460;24.060;2022-12-29T03:36:33;99446.91;;;-3.55;100.00
61757;BME280;57225;61.460;24.060;2022-12-29T03:39:22;99433.44;;;-3.60;100.00
61757;BME280;57225;61.460;24.060;2022-12-29T03:42:13;99431.00;;;-3.53;100.00
61757;BME280;57225;61.460;24.060;2022-12-29T03:44:58;99434.84;;;-3.45;100.00
61757;BME280;57225;61.460;24.060;2022-12-29T03:47:42;99430.50;;;-3.46;100.00
61757;BME280;57225;61.460;24.060;2022-12-29T03:50:27;99432.28;;;-3.50;100.00
61757;BME280;57225;61.460;24.060;2022-12-29T03:53:11;99438.22;;;-3.48;100.00
61757;BME280;57225;61.460;24.060;2022-12-29T03:55:56;99416.59;;;-3.53;100.00
61757;BME280;57225;61.460;24.060;2022-12-29T03:58:41;99408.59;;;-3.58;100.00
61757;BME280;57225;61.460;24.060;2022-12-29T04:01:25;99421.09;;;-3.57;100.00
61757;BME280;57225;61.460;24.060;2022-12-29T04:04:10;99401.13;;;-3.70;100.00
61757;BME280;57225;61.460;24.060;2022-12-29T04:06:54;99397.94;;;-3.72;100.00
61757;BME280;57225;61.460;24.060;2022-12-29T04:09:38;99414.25;;;-3.63;100.00
61757;BME280;57225;61.460;24.060;2022-12-29T04:12:23;99405.09;;;-3.59;100.00
61757;BME280;57225;61.460;24.060;2022-12-29T04:15:08;99401.06;;;-3.53;100.00
61757;BME280;57225;61.460;24.060;2022-12-29T04:17:52;99393.97;;;-3.45;100.00
61757;BME280;57225;61.460;24.060;2022-12-29T04:20:37;99393.06;;;-3.58;100.00
61757;BME280;57225;61.460;24.060;2022-12-29T04:23:40;99399.31;;;-3.57;100.00
61757;BME280;57225;61.460;24.060;2022-12-29T04:26:25;99398.38;;;-3.61;100.00
61757;BME280;57225;61.460;24.060;2022-12-29T04:29:09;99401.06;;;-3.53;100.00
61757;BME280;57225;61.460;24.060;2022-12-29T04:31:54;99394.97;;;-3.50;100.00
61757;BME280;57225;61.460;24.060;2022-12-29T04:34:38;99382.34;;;-3.54;100.00
61757;BME280;57225;61.460;24.060;2022-12-29T04:37:23;99398.69;;;-3.54;100.00
61757;BME280;57225;61.460;24.060;2022-12-29T04:40:08;99394.78;;;-3.45;100.00
61757;BME280;57225;61.460;24.060;2022-12-29T04:42:52;99392.56;;;-3.51;100.00
61757;BME280;57225;61.460;24.060;2022-12-29T04:45:38;99398.31;;;-3.44;100.00
61757;BME280;57225;61.460;24.060;2022-12-29T04:48:22;99398.31;;;-3.44;100.00
61757;BME280;57225;61.460;24.060;2022-12-29T04:51:07;99392.53;;;-3.43;100.00
61757;BME280;57225;61.460;24.060;2022-12-29T04:53:51;99382.75;;;-3.44;100.00
61757;BME280;57225;61.460;24.060;2022-12-29T04:56:36;99380.16;;;-3.40;100.00
61757;BME280;57225;61.460;24.060;2022-12-29T04:59:20;99380.66;;;-3.38;100.00
61757;BME280;57225;61.460;24.060;2022-12-29T05:02:05;99388.81;;;-3.38;100.00
61757;BME280;57225;61.460;24.060;2022-12-29T05:04:49;99378.50;;;-3.24;100.00
61757;BME280;57225;61.460;24.060;2022-12-29T05:07:34;99385.09;;;-3.34;100.00
61757;BME280;57225;61.460;24.060;2022-12-29T05:10:18;99385.97;;;-3.42;100.00
61757;BME280;57225;61.460;24.060;2022-12-29T05:13:03;99381.63;;;-3.43;100.00
61757;BME280;57225;61.460;24.060;2022-12-29T05:15:50;99390.22;;;-3.32;100.00
61757;BME280;57225;61.460;24.060;2022-12-29T05:18:35;99391.53;;;-3.38;100.00
61757;BME280;57225;61.460;24.060;2022-12-29T05:21:19;99387.31;;;-3.27;100.00
61757;BME280;57225;61.460;24.060;2022-12-29T05:24:04;99378.84;;;-3.34;100.00
61757;BME280;57225;61.460;24.060;2022-12-29T05:26:49;99390.84;;;-3.27;100.00
61757;BME280;57225;61.460;24.060;2022-12-29T05:29:34;99399.00;;;-3.27;100.00
61757;BME280;57225;61.460;24.060;2022-12-29T05:32:19;99397.69;;;-3.20;100.00
61757;BME280;57225;61.460;24.060;2022-12-29T05:35:03;99391.44;;;-3.21;100.00
61757;BME280;57225;61.460;24.060;2022-12-29T05:37:48;99383.97;;;-3.33;100.00
61757;BME280;57225;61.460;24.060;2022-12-29T05:40:32;99391.25;;;-3.16;100.00
61757;BME280;57225;61.460;24.060;2022-12-29T05:43:17;99389.06;;;-3.22;100.00
61757;BME280;57225;61.460;24.060;2022-12-29T05:46:02;99385.78;;;-3.16;100.00
61757;BME280;57225;61.460;24.060;2022-12-29T05:48:47;99381.28;;;-3.12;100.00
61757;BME280;57225;61.460;24.060;2022-12-29T05:51:31;99384.56;;;-2.98;100.00
61757;BME280;57225;61.460;24.060;2022-12-29T05:54:16;99388.16;;;-3.06;100.00
61757;BME280;57225;61.460;24.060;2022-12-29T05:57:00;99395.59;;;-2.94;100.00
61757;BME280;57225;61.460;24.060;2022-12-29T05:59:45;99392.78;;;-3.06;100.00
61757;BME280;57225;61.460;24.060;2022-12-29T06:02:29;99392.69;;;-3.10;100.00
61757;BME280;57225;61.460;24.060;2022-12-29T06:05:14;99384.16;;;-3.08;100.00
61757;BME280;57225;61.460;24.060;2022-12-29T06:07:58;99390.69;;;-3.01;100.00
61757;BME280;57225;61.460;24.060;2022-12-29T06:10:43;99377.78;;;-2.92;100.00
61757;BME280;57225;61.460;24.060;2022-12-29T06:13:27;99381.97;;;-2.94;100.00
61757;BME280;57225;61.460;24.060;2022-12-29T06:16:12;99362.91;;;-2.94;100.00
61757;BME280;57225;61.460;24.060;2022-12-29T06:18:57;99375.72;;;-2.95;100.00
61757;BME280;57225;61.460;24.060;2022-12-29T06:21:41;99378.41;;;-2.86;100.00
61757;BME280;57225;61.460;24.060;2022-12-29T06:24:26;99371.41;;;-2.96;100.00
61757;BME280;57225;61.460;24.060;2022-12-29T06:27:10;99377.84;;;-3.00;100.00
61757;BME280;57225;61.460;24.060;2022-12-29T06:29:55;99371.88;;;-2.94;100.00
61757;BME280;57225;61.460;24.060;2022-12-29T06:32:39;99364.09;;;-2.83;100.00
61757;BME280;57225;61.460;24.060;2022-12-29T06:35:24;99367.94;;;-2.84;100.00
61757;BME280;57225;61.460;24.060;2022-12-29T06:54:59;99344.03;;;-2.99;100.00
61757;BME280;57225;61.460;24.060;2022-12-29T06:57:43;99337.09;;;-2.97;100.00
61757;BME280;57225;61.460;24.060;2022-12-29T07:00:28;99351.66;;;-2.93;100.00
61757;BME280;57225;61.460;24.060;2022-12-29T07:03:12;99353.78;;;-2.77;100.00
61757;BME280;57225;61.460;24.060;2022-12-29T07:05:56;99341.75;;;-2.76;100.00
61757;BME280;57225;61.460;24.060;2022-12-29T07:08:43;99349.72;;;-2.71;100.00
61757;BME280;57225;61.460;24.060;2022-12-29T07:11:27;99347.94;;;-2.67;100.00
61757;BME280;57225;61.460;24.060;2022-12-29T07:14:12;99349.84;;;-2.68;100.00
61757;BME280;57225;61.460;24.060;2022-12-29T07:16:56;99347.97;;;-2.55;100.00
61757;BME280;57225;61.460;24.060;2022-12-29T07:19:41;99350.22;;;-2.57;100.00
61757;BME280;57225;61.460;24.060;2022-12-29T07:22:25;99352.09;;;-2.49;100.00
61757;BME280;57225;61.460;24.060;2022-12-29T07:25:09;99328.31;;;-2.61;100.00
61757;BME280;57225;61.460;24.060;2022-12-29T07:27:54;99351.56;;;-2.42;100.00
61757;BME280;57225;61.460;24.060;2022-12-29T07:30:38;99310.63;;;-2.75;100.00
61757;BME280;57225;61.460;24.060;2022-12-29T07:33:23;99342.63;;;-2.52;100.00
61757;BME280;57225;61.460;24.060;2022-12-29T07:36:07;99346.91;;;-2.42;100.00
61757;BME280;57225;61.460;24.060;2022-12-29T07:38:51;99345.94;;;-2.46;100.00
61757;BME280;57225;61.460;24.060;2022-12-29T07:41:36;99340.50;;;-2.46;100.00
61757;BME280;57225;61.460;24.060;2022-12-29T07:44:21;99346.22;;;-2.39;100.00
61757;BME280;57225;61.460;24.060;2022-12-29T07:47:06;99348.28;;;-2.36;100.00
61757;BME280;57225;61.460;24.060;2022-12-29T07:49:50;99350.31;;;-2.33;100.00
61757;BME280;57225;61.460;24.060;2022-12-29T07:52:35;99336.91;;;-2.38;100.00
61757;BME280;57225;61.460;24.060;2022-12-29T07:55:19;99345.13;;;-2.26;100.00
61757;BME280;57225;61.460;24.060;2022-12-29T07:58:04;99336.38;;;-2.19;100.00
61757;BME280;57225;61.460;24.060;2022-12-29T08:00:53;99342.88;;;-2.12;100.00
61757;BME280;57225;61.460;24.060;2022-12-29T08:03:38;99347.50;;;-2.24;100.00
61757;BME280;57225;61.460;24.060;2022-12-29T08:06:25;99339.25;;;-2.16;100.00
61757;BME280;57225;61.460;24.060;2022-12-29T08:09:10;99334.69;;;-2.12;100.00
61757;BME280;57225;61.460;24.060;2022-12-29T08:11:55;99334.69;;;-2.12;100.00
61757;BME280;57225;61.460;24.060;2022-12-29T08:14:40;99324.81;;;-2.16;100.00
61757;BME280;57225;61.460;24.060;2022-12-29T08:17:24;99331.38;;;-2.17;100.00
61757;BME280;57225;61.460;24.060;2022-12-29T08:20:09;99321.28;;;-2.17;100.00
61757;BME280;57225;61.460;24.060;2022-12-29T08:22:53;99323.09;;;-2.09;100.00
61757;BME280;57225;61.460;24.060;2022-12-29T08:25:38;99302.03;;;-2.08;100.00
61757;BME280;57225;61.460;24.060;2022-12-29T08:28:23;99315.69;;;-2.08;100.00
61757;BME280;57225;61.460;24.060;2022-12-29T08:31:11;99312.84;;;-2.12;100.00
61757;BME280;57225;61.460;24.060;2022-12-29T08:33:55;99315.38;;;-2.07;100.00
61757;BME280;57225;61.460;24.060;2022-12-29T08:36:40;99325.16;;;-2.06;100.00
61757;BME280;57225;61.460;24.060;2022-12-29T08:39:24;99315.84;;;-1.92;100.00
61757;BME280;57225;61.460;24.060;2022-12-29T08:42:10;99317.88;;;-2.02;100.00
61757;BME280;57225;61.460;24.060;2022-12-29T08:44:54;99311.28;;;-2.00;100.00
61757;BME280;57225;61.460;24.060;2022-12-29T08:47:39;99302.41;;;-2.10;100.00
61757;BME280;57225;61.460;24.060;2022-12-29T08:50:23;99319.25;;;-1.95;100.00
61757;BME280;57225;61.460;24.060;2022-12-29T08:53:08;99316.41;;;-1.99;100.00
61757;BME280;57225;61.460;24.060;2022-12-29T08:55:59;99315.38;;;-1.94;100.00
61757;BME280;57225;61.460;24.060;2022-12-29T08:58:44;99309.91;;;-1.94;100.00
61757;BME280;57225;61.460;24.060;2022-12-29T09:01:29;99314.47;;;-1.86;100.00
61757;BME280;57225;61.460;24.060;2022-12-29T09:04:14;99321.78;;;-1.78;100.00
61757;BME280;57225;61.460;24.060;2022-12-29T09:06:58;99298.56;;;-1.84;100.00
61757;BME280;57225;61.460;24.060;2022-12-29T09:09:43;99294.09;;;-1.89;100.00
61757;BME280;57225;61.460;24.060;2022-12-29T09:12:27;99289.56;;;-1.85;100.00
61757;BME280;57225;61.460;24.060;2022-12-29T09:15:12;99298.09;;;-1.86;100.00
61757;BME280;57225;61.460;24.060;2022-12-29T09:17:56;99290.00;;;-1.83;100.00
61757;BME280;57225;61.460;24.060;2022-12-29T09:20:41;99295.03;;;-1.73;100.00
61757;BME280;57225;61.460;24.060;2022-12-29T09:23:26;99294.25;;;-1.85;100.00
61757;BME280;57225;61.460;24.060;2022-12-29T09:26:10;99298.00;;;-1.78;100.00
61757;BME280;57225;61.460;24.060;2022-12-29T09:28:55;99296.75;;;-1.80;100.00
61757;BME280;57225;61.460;24.060;2022-12-29T09:31:39;99289.81;;;-1.78;100.00
61757;BME280;57225;61.460;24.060;2022-12-29T09:34:24;99294.25;;;-1.73;100.00
61757;BME280;57225;61.460;24.060;2022-12-29T09:37:08;99278.31;;;-1.71;100.00
61757;BME280;57225;61.460;24.060;2022-12-29T09:39:53;99279.69;;;-1.65;100.00
61757;BME280;57225;61.460;24.060;2022-12-29T09:42:42;99275.13;;;-1.73;100.00
61757;BME280;57225;61.460;24.060;2022-12-29T09:45:42;99270.78;;;-1.62;100.00
61757;BME280;57225;61.460;24.060;2022-12-29T09:48:32;99258.25;;;-1.63;100.00
61757;BME280;57225;61.460;24.060;2022-12-29T09:51:22;99262.59;;;-1.62;100.00
61757;BME280;57225;61.460;24.060;2022-12-29T09:57:48;99264.66;;;-1.59;100.00
61757;BME280;57225;61.460;24.060;2022-12-29T10:00:38;99257.81;;;-1.53;100.00
61757;BME280;57225;61.460;24.060;2022-12-29T10:03:32;99258.03;;;-1.58;100.00
61757;BME280;57225;61.460;24.060;2022-12-29T10:06:39;99253.50;;;-1.66;100.00
61757;BME280;57225;61.460;24.060;2022-12-29T10:09:47;99262.00;;;-1.55;100.00
61757;BME280;57225;61.460;24.060;2022-12-29T10:18:20;99251.63;;;-1.50;100.00
61757;BME280;57225;61.460;24.060;2022-12-29T10:21:21;99256.31;;;-1.50;100.00
61757;BME280;57225;61.460;24.060;2022-12-29T10:24:11;99245.03;;;-1.49;100.00
61757;BME280;57225;61.460;24.060;2022-12-29T10:26:58;99238.22;;;-1.55;100.00
61757;BME280;57225;61.460;24.060;2022-12-29T10:29:49;99239.13;;;-1.51;100.00
61757;BME280;57225;61.460;24.060;2022-12-29T10:32:39;99234.44;;;-1.50;100.00
61757;BME280;57225;61.460;24.060;2022-12-29T10:35:32;99233.88;;;-1.44;100.00
61757;BME280;57225;61.460;24.060;2022-12-29T10:38:36;99219.41;;;-1.44;100.00
61757;BME280;57225;61.460;24.060;2022-12-29T10:41:28;99219.06;;;-1.43;100.00
61757;BME280;57225;61.460;24.060;2022-12-29T10:44:19;99216.22;;;-1.34;100.00
61757;BME280;57225;61.460;24.060;2022-12-29T10:47:09;99202.09;;;-1.36;100.00
61757;BME280;57225;61.460;24.060;2022-12-29T10:49:56;99203.34;;;-1.34;100.00
61757;BME280;57225;61.460;24.060;2022-12-29T10:52:42;99200.63;;;-1.34;100.00
61757;BME280;57225;61.460;24.060;2022-12-29T10:55:32;99204.69;;;-1.28;100.00
61757;BME280;57225;61.460;24.060;2022-12-29T10:58:18;99192.16;;;-1.29;100.00
61757;BME280;57225;61.460;24.060;2022-12-29T11:01:03;99182.91;;;-1.24;100.00
61757;BME280;57225;61.460;24.060;2022-12-29T11:04:09;99189.88;;;-1.27;100.00
61757;BME280;57225;61.460;24.060;2022-12-29T11:07:03;99167.09;;;-1.31;100.00
61757;BME280;57225;61.460;24.060;2022-12-29T11:09:48;99172.28;;;-1.13;100.00
61757;BME280;57225;61.460;24.060;2022-12-29T11:12:33;99169.69;;;-1.22;100.00
61757;BME280;57225;61.460;24.060;2022-12-29T11:15:18;99171.31;;;-1.21;100.00
61757;BME280;57225;61.460;24.060;2022-12-29T11:18:03;99163.72;;;-1.12;100.00
61757;BME280;57225;61.460;24.060;2022-12-29T11:20:49;99152.50;;;-1.23;100.00
61757;BME280;57225;61.460;24.060;2022-12-29T11:23:40;99152.78;;;-1.12;100.00
61757;BME280;57225;61.460;24.060;2022-12-29T11:26:25;99153.69;;;-1.08;100.00
61757;BME280;57225;61.460;24.060;2022-12-29T11:32:11;99151.63;;;-1.27;100.00
61757;BME280;57225;61.460;24.060;2022-12-29T11:34:57;99156.78;;;-1.09;100.00
61757;BME280;57225;61.460;24.060;2022-12-29T11:37:43;99150.78;;;-1.15;100.00
61757;BME280;57225;61.460;24.060;2022-12-29T11:40:27;99157.03;;;-1.14;100.00
61757;BME280;57225;61.460;24.060;2022-12-29T11:43:39;99160.56;;;-1.14;100.00
61757;BME280;57225;61.460;24.060;2022-12-29T11:46:34;99151.19;;;-1.13;100.00
61757;BME280;57225;61.460;24.060;2022-12-29T11:49:24;99149.63;;;-1.14;100.00
61757;BME280;57225;61.460;24.060;2022-12-29T11:52:09;99145.53;;;-1.20;100.00
61757;BME280;57225;61.460;24.060;2022-12-29T11:54:54;99132.84;;;-1.28;100.00
61757;BME280;57225;61.460;24.060;2022-12-29T11:57:41;99135.84;;;-1.17;100.00
61757;BME280;57225;61.460;24.060;2022-12-29T12:00:27;99126.97;;;-1.14;100.00
61757;BME280;57225;61.460;24.060;2022-12-29T12:03:19;99126.16;;;-1.15;100.00
61757;BME280;57225;61.460;24.060;2022-12-29T12:06:11;99128.91;;;-1.15;100.00
61757;BME280;57225;61.460;24.060;2022-12-29T12:09:01;99120.59;;;-1.18;100.00
61757;BME280;57225;61.460;24.060;2022-12-29T12:11:47;99112.94;;;-1.13;100.00
61757;BME280;57225;61.460;24.060;2022-12-29T12:14:42;99116.03;;;-1.14;100.00
61757;BME280;57225;61.460;24.060;2022-12-29T12:21:16;99101.31;;;-1.10;100.00
61757;BME280;57225;61.460;24.060;2022-12-29T12:24:32;99091.97;;;-1.09;100.00
61757;BME280;57225;61.460;24.060;2022-12-29T12:27:26;99083.47;;;-1.19;100.00
61757;BME280;57225;61.460;24.060;2022-12-29T12:30:19;99091.50;;;-1.11;100.00
61757;BME280;57225;61.460;24.060;2022-12-29T12:33:17;99085.97;;;-1.14;100.00
61757;BME280;57225;61.460;24.060;2022-12-29T12:42:39;99088.78;;;-1.11;100.00
61757;BME280;57225;61.460;24.060;2022-12-29T12:45:32;99094.16;;;-1.14;100.00
61757;BME280;57225;61.460;24.060;2022-12-29T13:07:43;99048.41;;;-1.02;100.00
61757;BME280;57225;61.460;24.060;2022-12-29T13:10:41;99047.16;;;-1.04;100.00
61757;BME280;57225;61.460;24.060;2022-12-29T13:13:49;99042.81;;;-1.05;100.00
61757;BME280;57225;61.460;24.060;2022-12-29T13:25:14;99035.88;;;-1.03;100.00
61757;BME280;57225;61.460;24.060;2022-12-29T13:28:11;99036.38;;;-1.13;100.00
61757;BME280;57225;61.460;24.060;2022-12-29T13:32:00;99014.63;;;-1.09;100.00
61757;BME280;57225;61.460;24.060;2022-12-29T13:34:56;99013.22;;;-1.03;100.00
61757;BME280;57225;61.460;24.060;2022-12-29T13:37:51;99010.19;;;-0.98;100.00
61757;BME280;57225;61.460;24.060;2022-12-29T13:40:41;99014.00;;;-1.03;100.00
61757;BME280;57225;61.460;24.060;2022-12-29T13:43:30;98995.47;;;-1.09;100.00
61757;BME280;57225;61.460;24.060;2022-12-29T13:46:19;98993.72;;;-1.02;100.00
61757;BME280;57225;61.460;24.060;2022-12-29T13:49:18;98988.88;;;-1.08;100.00
61757;BME280;57225;61.460;24.060;2022-12-29T13:52:37;99009.22;;;-1.06;100.00
61757;BME280;57225;61.460;24.060;2022-12-29T13:55:32;98998.81;;;-1.00;100.00
61757;BME280;57225;61.460;24.060;2022-12-29T14:01:50;98990.44;;;-1.07;100.00
61757;BME280;57225;61.460;24.060;2022-12-29T14:04:35;98979.50;;;-1.07;100.00
61757;BME280;57225;61.460;24.060;2022-12-29T14:07:20;98975.56;;;-1.10;100.00
61757;BME280;57225;61.460;24.060;2022-12-29T14:10:05;98984.09;;;-1.11;100.00
61757;BME280;57225;61.460;24.060;2022-12-29T14:12:49;98978.13;;;-1.01;100.00
61757;BME280;57225;61.460;24.060;2022-12-29T14:15:38;98970.16;;;-1.06;100.00
61757;BME280;57225;61.460;24.060;2022-12-29T14:18:30;98956.31;;;-1.13;100.00
61757;BME280;57225;61.460;24.060;2022-12-29T14:24:27;98961.34;;;-1.00;100.00
61757;BME280;57225;61.460;24.060;2022-12-29T14:29:56;98954.53;;;-1.06;100.00
61757;BME280;57225;61.460;24.060;2022-12-29T14:33:01;98950.31;;;-1.03;100.00
61757;BME280;57225;61.460;24.060;2022-12-29T14:35:47;98948.56;;;-0.96;100.00
61757;BME280;57225;61.460;24.060;2022-12-29T14:38:44;98942.13;;;-1.03;100.00
61757;BME280;57225;61.460;24.060;2022-12-29T14:41:38;98933.41;;;-1.09;100.00
61757;BME280;57225;61.460;24.060;2022-12-29T14:44:22;98942.41;;;-1.08;100.00
61757;BME280;57225;61.460;24.060;2022-12-29T14:47:08;98934.72;;;-1.03;100.00
61757;BME280;57225;61.460;24.060;2022-12-29T14:49:52;98935.13;;;-1.01;100.00
61757;BME280;57225;61.460;24.060;2022-12-29T14:55:46;98924.19;;;-1.01;100.00
61757;BME280;57225;61.460;24.060;2022-12-29T15:01:43;98918.81;;;-0.97;100.00
61757;BME280;57225;61.460;24.060;2022-12-29T15:04:33;98922.72;;;-0.98;100.00
61757;BME280;57225;61.460;24.060;2022-12-29T15:07:19;98900.66;;;-1.05;100.00
61757;BME280;57225;61.460;24.060;2022-12-29T15:10:11;98913.81;;;-0.95;100.00
61757;BME280;57225;61.460;24.060;2022-12-29T15:13:03;98897.03;;;-0.94;100.00
61757;BME280;57225;61.460;24.060;2022-12-29T15:15:51;98899.41;;;-0.92;100.00
61757;BME280;57225;61.460;24.060;2022-12-29T15:18:36;98872.66;;;-0.83;100.00
61757;BME280;57225;61.460;24.060;2022-12-29T15:21:29;98877.13;;;-0.75;100.00
61757;BME280;57225;61.460;24.060;2022-12-29T15:24:14;98868.19;;;-0.91;100.00
61757;BME280;57225;61.460;24.060;2022-12-29T15:27:03;98869.94;;;-0.83;100.00
61757;BME280;57225;61.460;24.060;2022-12-29T15:29:58;98862.13;;;-0.81;100.00
61757;BME280;57225;61.460;24.060;2022-12-29T15:32:45;98862.22;;;-0.77;100.00
61757;BME280;57225;61.460;24.060;2022-12-29T15:35:37;98863.03;;;-0.77;100.00
61757;BME280;57225;61.460;24.060;2022-12-29T15:38:24;98850.34;;;-0.85;100.00
61757;BME280;57225;61.460;24.060;2022-12-29T15:41:42;98847.25;;;-0.84;100.00
61757;BME280;57225;61.460;24.060;2022-12-29T15:44:44;98847.47;;;-0.73;100.00
61757;BME280;57225;61.460;24.060;2022-12-29T15:47:29;98841.16;;;-0.77;100.00
61757;BME280;57225;61.460;24.060;2022-12-29T15:53:10;98837.31;;;-0.72;100.00
61757;BME280;57225;61.460;24.060;2022-12-29T15:56:01;98835.59;;;-0.81;100.00
61757;BME280;57225;61.460;24.060;2022-12-29T15:58:51;98820.19;;;-0.69;100.00
61757;BME280;57225;61.460;24.060;2022-12-29T16:01:36;98835.88;;;-0.66;100.00
61757;BME280;57225;61.460;24.060;2022-12-29T16:04:21;98835.69;;;-0.58;100.00
61757;BME280;57225;61.460;24.060;2022-12-29T16:07:20;98828.75;;;-0.71;100.00
61757;BME280;57225;61.460;24.060;2022-12-29T16:10:25;98830.34;;;-0.70;100.00
61757;BME280;57225;61.460;24.060;2022-12-29T16:13:29;98826.44;;;-0.69;100.00
61757;BME280;57225;61.460;24.060;2022-12-29T16:16:19;98825.00;;;-0.63;100.00
61757;BME280;57225;61.460;24.060;2022-12-29T16:19:15;98829.72;;;-0.63;100.00
61757;BME280;57225;61.460;24.060;2022-12-29T16:22:10;98809.31;;;-0.66;100.00
61757;BME280;57225;61.460;24.060;2022-12-29T16:24:58;98807.03;;;-0.64;100.00
61757;BME280;57225;61.460;24.060;2022-12-29T16:27:44;98804.00;;;-0.59;100.00
61757;BME280;57225;61.460;24.060;2022-12-29T16:30:31;98788.59;;;-0.67;100.00
61757;BME280;57225;61.460;24.060;2022-12-29T16:33:50;98785.34;;;-0.53;100.00
61757;BME280;57225;61.460;24.060;2022-12-29T16:36:40;98776.47;;;-0.47;100.00